Amador City, California
Current Conditions -  °F | °C
As of 8:35 AM on Friday 19 Dec 2014 (Local Time) from KPVF Reporting Station
Broken Clouds Broken Clouds  
Wind Chill: 43°   Ceiling: 3600
Heat Index: 48°   Visibility: 10mi
Dew Point: 36°   Wind: 12mph
Humidity: 62%   Direction: 180°S
Pressure: 30.15"   Gusts: NA
Location:  38.42°N, 120.82°W
Report Text: KPVF 191635Z AUTO 18010KT 10SM FEW026 BKN036 09/02 A3015 RMK AO1
Loading
Personal Weather Stations






























Interactive Weather Map New forecast layout! Learn more

10-Day Weather Forecast

Advertisements
Track Severe Weather on mobile